Time;durP1;ratioP1;P1;durP2;ratioP2;P2;SDS_P1;SDS_P2;PMS_P1;PMS_P2;Temp;Humidity;BMP_temperature;BMP_pressure;BME280_temperature;BME280_humidity;BME280_pressure;Samples;Min_cycle;Max_cycle;Signal;HPM_P1;HPM_P2
2023/08/26 00:01:46;;;;;;;6.27;4.93;;;;;;;;;;5027394;28;20545;-59
2023/08/26 00:04:13;;;;;;;6.50;5.57;;;;;;;;;;5027027;28;20556;-59
2023/08/26 00:06:41;;;;;;;12.13;6.07;;;;;;;;;;5027601;28;20446;-58
2023/08/26 00:09:08;;;;;;;8.23;5.87;;;;;;;;;;5027767;28;20564;-59
2023/08/26 00:11:35;;;;;;;7.00;5.80;;;;;;;;;;5027066;28;20524;-59
2023/08/26 00:14:04;;;;;;;6.20;5.20;;;;;;;;;;5026733;28;20891;-58
2023/08/26 00:16:31;;;;;;;6.40;5.70;;;;;;;;;;5036019;28;20438;-59
2023/08/26 00:19:00;;;;;;;6.00;5.30;;;;;;;;;;5046533;28;20465;-59
2023/08/26 00:21:27;;;;;;;6.17;5.10;;;;;;;;;;5038584;28;20476;-59
2023/08/26 00:23:54;;;;;;;5.60;5.10;;;;;;;;;;5025472;28;20455;-59
2023/08/26 00:26:22;;;;;;;5.87;5.00;;;;;;;;;;5025848;28;20874;-59
2023/08/26 00:28:49;;;;;;;6.53;5.47;;;;;;;;;;5026566;28;20564;-59
2023/08/26 00:31:16;;;;;;;10.63;6.77;;;;;;;;;;5027904;28;20548;-57
2023/08/26 00:33:44;;;;;;;6.30;5.70;;;;;;;;;;5027384;28;20609;-59
2023/08/26 00:36:12;;;;;;;8.20;5.20;;;;;;;;;;5025863;28;20723;-60
2023/08/26 00:38:39;;;;;;;8.83;5.80;;;;;;;;;;5026048;28;20543;-60
2023/08/26 00:41:07;;;;;;;6.63;5.70;;;;;;;;;;5025764;28;20493;-59
2023/08/26 00:43:37;;;;;;;6.00;4.30;;;;;;;;;;5025455;28;20563;-59
2023/08/26 00:46:05;;;;;;;6.67;5.70;;;;;;;;;;5025881;28;21004;-58
2023/08/26 00:48:32;;;;;;;6.80;5.37;;;;;;;;;;5035726;28;21078;-58
2023/08/26 00:51:00;;;;;;;7.43;5.47;;;;;;;;;;5043852;28;20568;-58
2023/08/26 00:53:28;;;;;;;8.47;5.60;;;;;;;;;;5027518;28;20519;-58
2023/08/26 00:55:55;;;;;;;8.53;4.50;;;;;;;;;;5026687;28;20454;-59
2023/08/26 00:58:23;;;;;;;6.70;5.70;;;;;;;;;;5029016;28;20504;-59
2023/08/26 01:00:50;;;;;;;5.33;4.83;;;;;;;;;;5030851;28;20551;-59
2023/08/26 01:03:18;;;;;;;5.90;4.93;;;;;;;;;;5029808;28;20525;-59
2023/08/26 01:05:45;;;;;;;7.83;5.73;;;;;;;;;;5032642;28;20446;-59
2023/08/26 01:08:12;;;;;;;9.63;5.07;;;;;;;;;;5030975;28;20850;-59
2023/08/26 01:10:47;;;;;;;6.80;5.50;;;;;;;;;;5032891;28;20446;-59
2023/08/26 01:13:15;;;;;;;7.53;5.40;;;;;;;;;;5032472;28;20442;-59
2023/08/26 01:15:44;;;;;;;6.97;5.70;;;;;;;;;;5032761;28;20533;-59
2023/08/26 01:18:13;;;;;;;6.30;4.73;;;;;;;;;;5036996;28;20871;-59
2023/08/26 01:20:41;;;;;;;6.53;5.03;;;;;;;;;;5053238;28;20447;-59
2023/08/26 01:23:10;;;;;;;5.90;4.70;;;;;;;;;;5033258;28;20442;-59
2023/08/26 01:25:39;;;;;;;7.13;5.30;;;;;;;;;;5032138;28;20866;-59
2023/08/26 01:28:07;;;;;;;7.30;5.63;;;;;;;;;;5032333;28;20517;-59
2023/08/26 01:30:35;;;;;;;5.97;5.37;;;;;;;;;;5032744;28;20446;-59
2023/08/26 01:33:06;;;;;;;6.50;5.60;;;;;;;;;;5032911;28;20442;-59
2023/08/26 01:35:35;;;;;;;5.40;4.90;;;;;;;;;;5032189;28;20941;-59
2023/08/26 01:38:02;;;;;;;5.83;5.03;;;;;;;;;;5019012;28;20474;-59
2023/08/26 01:40:30;;;;;;;5.67;4.90;;;;;;;;;;5032324;28;20537;-59
2023/08/26 01:42:59;;;;;;;6.93;5.43;;;;;;;;;;5031938;28;20530;-59
2023/08/26 01:45:27;;;;;;;6.63;5.30;;;;;;;;;;5031820;28;20523;-59
2023/08/26 01:47:54;;;;;;;6.43;5.07;;;;;;;;;;5031304;28;21310;-59
2023/08/26 01:50:21;;;;;;;10.53;6.30;;;;;;;;;;5051220;28;20532;-59
2023/08/26 01:52:49;;;;;;;7.20;6.13;;;;;;;;;;5043961;28;20534;-58
2023/08/26 01:55:16;;;;;;;5.60;5.10;;;;;;;;;;5031077;28;20454;-58
2023/08/26 01:57:43;;;;;;;8.80;5.70;;;;;;;;;;5029712;28;20470;-59
2023/08/26 02:00:13;;;;;;;6.53;5.17;;;;;;;;;;5030869;28;20447;-59
2023/08/26 02:02:40;;;;;;;7.10;5.43;;;;;;;;;;5032108;28;20516;-59
2023/08/26 02:05:07;;;;;;;6.10;4.97;;;;;;;;;;5031261;28;20890;-57
2023/08/26 02:07:34;;;;;;;8.70;5.80;;;;;;;;;;5031919;28;20971;-59
2023/08/26 02:10:02;;;;;;;7.00;5.57;;;;;;;;;;5031121;28;20525;-59
2023/08/26 02:12:29;;;;;;;7.60;5.57;;;;;;;;;;5031408;28;20469;-58
2023/08/26 02:14:56;;;;;;;8.33;5.97;;;;;;;;;;5031616;28;20442;-58
2023/08/26 02:17:25;;;;;;;7.70;5.70;;;;;;;;;;5030957;28;20476;-59
2023/08/26 02:19:52;;;;;;;5.97;5.00;;;;;;;;;;5030025;28;20918;-59
2023/08/26 02:22:20;;;;;;;7.30;5.50;;;;;;;;;;5030152;28;20486;-59
2023/08/26 02:24:47;;;;;;;7.30;5.90;;;;;;;;;;5030344;28;20466;-59
2023/08/26 02:27:15;;;;;;;11.00;6.00;;;;;;;;;;5029917;28;20438;-59
2023/08/26 02:29:42;;;;;;;5.87;5.23;;;;;;;;;;5029714;28;20561;-59
2023/08/26 02:32:09;;;;;;;7.23;5.40;;;;;;;;;;5030010;28;20474;-58
2023/08/26 02:34:38;;;;;;;6.50;5.90;;;;;;;;;;5031589;28;20537;-59
2023/08/26 02:37:05;;;;;;;9.03;6.00;;;;;;;;;;5030560;28;20439;-59
2023/08/26 02:39:32;;;;;;;7.23;6.00;;;;;;;;;;5030117;28;20521;-59
2023/08/26 02:42:00;;;;;;;6.40;5.60;;;;;;;;;;5083371;23;21207;-84
2023/08/26 02:44:27;;;;;;;11.63;6.60;;;;;;;;;;5089850;28;20511;-86
2023/08/26 02:49:30;;;;;;;6.53;5.90;;;;;;;;;;5040917;28;20484;-56
2023/08/26 02:51:59;;;;;;;9.10;5.70;;;;;;;;;;5046359;28;20560;-57
2023/08/26 02:54:26;;;;;;;6.20;4.80;;;;;;;;;;5051332;28;20434;-56
2023/08/26 02:56:53;;;;;;;9.73;5.57;;;;;;;;;;5041991;28;20805;-56
2023/08/26 02:59:20;;;;;;;5.83;5.23;;;;;;;;;;5030897;28;20944;-57
2023/08/26 03:01:48;;;;;;;6.50;5.90;;;;;;;;;;5036902;28;20489;-58
2023/08/26 03:04:15;;;;;;;6.87;6.10;;;;;;;;;;5049569;28;20461;-57
2023/08/26 03:06:42;;;;;;;6.50;5.80;;;;;;;;;;5049772;28;20995;-57
2023/08/26 03:09:11;;;;;;;8.83;6.03;;;;;;;;;;5034930;28;20666;-58
2023/08/26 03:11:38;;;;;;;11.73;5.80;;;;;;;;;;5039019;28;20547;-56
2023/08/26 03:14:05;;;;;;;5.57;4.83;;;;;;;;;;5038294;28;20469;-56
2023/08/26 03:16:32;;;;;;;9.33;6.10;;;;;;;;;;5042741;28;20530;-56
2023/08/26 03:18:59;;;;;;;7.93;5.83;;;;;;;;;;5039605;28;20437;-56
2023/08/26 03:21:28;;;;;;;6.87;5.43;;;;;;;;;;5030467;28;20593;-57
2023/08/26 03:23:56;;;;;;;8.90;6.37;;;;;;;;;;5043239;28;20442;-57
2023/08/26 03:26:24;;;;;;;8.90;5.87;;;;;;;;;;5048985;28;20882;-57
2023/08/26 03:28:51;;;;;;;7.57;6.30;;;;;;;;;;5045567;28;20548;-56
2023/08/26 03:31:19;;;;;;;7.80;6.67;;;;;;;;;;5032775;28;20537;-58
2023/08/26 03:33:46;;;;;;;11.73;6.93;;;;;;;;;;5044267;28;20441;-57
2023/08/26 03:36:13;;;;;;;6.20;5.57;;;;;;;;;;5049140;28;20520;-57
2023/08/26 03:38:40;;;;;;;9.63;6.93;;;;;;;;;;5038919;28;20591;-57
2023/08/26 03:41:08;;;;;;;8.17;6.43;;;;;;;;;;5029427;28;20903;-58
2023/08/26 03:43:36;;;;;;;7.00;6.30;;;;;;;;;;5030982;28;20480;-57
2023/08/26 03:46:04;;;;;;;8.23;6.30;;;;;;;;;;5031013;28;20478;-57
2023/08/26 03:48:32;;;;;;;9.93;6.70;;;;;;;;;;5032946;28;20864;-56
2023/08/26 03:50:59;;;;;;;7.07;6.37;;;;;;;;;;5042454;28;20888;-56
2023/08/26 03:53:27;;;;;;;15.33;7.57;;;;;;;;;;5030193;28;20442;-56
2023/08/26 03:55:54;;;;;;;7.37;5.93;;;;;;;;;;5046843;28;20789;-57
2023/08/26 03:58:22;;;;;;;7.40;6.70;;;;;;;;;;5048114;28;20840;-57
2023/08/26 04:00:50;;;;;;;12.70;6.40;;;;;;;;;;5047887;28;20940;-57
2023/08/26 04:03:18;;;;;;;10.20;6.73;;;;;;;;;;5038068;28;20442;-57
2023/08/26 04:05:45;;;;;;;8.90;6.53;;;;;;;;;;5010387;28;20486;-56
2023/08/26 04:08:12;;;;;;;10.40;6.77;;;;;;;;;;5013513;28;20485;-57
2023/08/26 04:10:39;;;;;;;7.47;5.90;;;;;;;;;;5029860;28;20868;-58
2023/08/26 04:13:19;;;;;;;7.17;6.40;;;;;;;;;;5029830;28;20504;-57
2023/08/26 04:15:46;;;;;;;7.47;6.77;;;;;;;;;;5034309;28;20498;-58
2023/08/26 04:18:15;;;;;;;7.60;6.77;;;;;;;;;;5035958;28;20883;-58
2023/08/26 04:20:43;;;;;;;6.87;6.17;;;;;;;;;;5029952;28;20438;-57
2023/08/26 04:23:10;;;;;;;8.57;6.63;;;;;;;;;;5029489;28;20526;-56
2023/08/26 04:25:38;;;;;;;8.33;7.43;;;;;;;;;;5030635;28;20921;-57
2023/08/26 04:28:06;;;;;;;6.20;5.60;;;;;;;;;;5039637;28;20536;-57
2023/08/26 04:30:34;;;;;;;7.90;5.90;;;;;;;;;;5044506;28;20447;-56
2023/08/26 04:33:04;;;;;;;11.30;7.80;;;;;;;;;;5036475;28;20465;-56
2023/08/26 04:35:32;;;;;;;7.83;6.80;;;;;;;;;;5051853;28;20449;-58
2023/08/26 04:37:59;;;;;;;7.77;6.27;;;;;;;;;;5043481;28;20450;-57
2023/08/26 04:40:27;;;;;;;8.50;6.70;;;;;;;;;;5038036;28;20879;-58
2023/08/26 04:42:54;;;;;;;11.97;6.23;;;;;;;;;;5040259;28;20508;-57
2023/08/26 04:45:22;;;;;;;8.07;6.53;;;;;;;;;;5035889;28;20461;-57
2023/08/26 04:47:49;;;;;;;6.70;6.00;;;;;;;;;;5050608;28;20487;-57
2023/08/26 04:50:17;;;;;;;8.47;7.17;;;;;;;;;;5022303;28;20997;-58
2023/08/26 04:52:45;;;;;;;9.80;8.43;;;;;;;;;;5013861;28;20458;-57
2023/08/26 04:55:13;;;;;;;7.90;7.20;;;;;;;;;;5048706;28;20533;-56
2023/08/26 04:57:40;;;;;;;8.20;7.20;;;;;;;;;;5041559;28;20788;-57
2023/08/26 05:00:10;;;;;;;8.87;7.57;;;;;;;;;;5031914;28;20438;-56
2023/08/26 05:02:38;;;;;;;7.47;6.67;;;;;;;;;;5032521;28;20572;-54
2023/08/26 05:05:05;;;;;;;7.00;6.17;;;;;;;;;;5043364;28;20492;-56
2023/08/26 05:07:33;;;;;;;7.40;6.53;;;;;;;;;;5053090;28;20433;-54
2023/08/26 05:10:03;;;;;;;7.33;6.63;;;;;;;;;;5042245;28;20840;-55
2023/08/26 05:12:30;;;;;;;6.93;5.60;;;;;;;;;;5034875;28;20469;-55
2023/08/26 05:14:57;;;;;;;14.97;13.47;;;;;;;;;;5033445;28;20477;-55
2023/08/26 05:17:25;;;;;;;10.73;9.63;;;;;;;;;;5034333;28;20886;-55
2023/08/26 05:19:52;;;;;;;10.07;8.27;;;;;;;;;;5043838;28;20614;-56
2023/08/26 05:22:21;;;;;;;8.17;7.30;;;;;;;;;;5031676;28;20468;-55
2023/08/26 05:24:48;;;;;;;8.30;7.50;;;;;;;;;;5038930;28;20453;-55
2023/08/26 05:27:17;;;;;;;7.13;6.43;;;;;;;;;;5047560;28;20465;-54
2023/08/26 05:29:46;;;;;;;7.77;6.93;;;;;;;;;;5050993;28;20568;-56
2023/08/26 05:32:13;;;;;;;7.17;6.50;;;;;;;;;;5052567;28;20465;-54
2023/08/26 05:34:40;;;;;;;6.73;5.90;;;;;;;;;;5042782;28;20474;-55
2023/08/26 05:37:07;;;;;;;7.50;6.53;;;;;;;;;;5046082;28;20820;-55
2023/08/26 05:39:35;;;;;;;7.90;6.33;;;;;;;;;;5051075;28;20512;-56
2023/08/26 05:42:02;;;;;;;7.47;6.40;;;;;;;;;;5039865;28;20541;-55
2023/08/26 05:44:30;;;;;;;8.00;6.93;;;;;;;;;;5046684;28;20453;-56
2023/08/26 05:46:58;;;;;;;13.60;7.00;;;;;;;;;;5048387;28;20906;-54
2023/08/26 05:49:25;;;;;;;6.67;5.37;;;;;;;;;;5044073;28;20578;-56
2023/08/26 05:51:52;;;;;;;6.90;6.20;;;;;;;;;;5037832;28;20461;-55
2023/08/26 05:54:19;;;;;;;7.83;6.80;;;;;;;;;;5043441;28;20500;-56
2023/08/26 05:56:47;;;;;;;6.57;5.47;;;;;;;;;;5044066;28;20441;-55
2023/08/26 05:59:14;;;;;;;8.80;6.93;;;;;;;;;;5044944;28;20532;-54
2023/08/26 06:01:42;;;;;;;9.03;6.73;;;;;;;;;;5040755;28;20520;-55
2023/08/26 06:04:10;;;;;;;7.30;6.60;;;;;;;;;;5040842;28;20589;-55
2023/08/26 06:06:37;;;;;;;10.30;6.77;;;;;;;;;;5041013;28;20967;-55
2023/08/26 06:09:04;;;;;;;8.37;7.37;;;;;;;;;;5040379;28;20501;-55
2023/08/26 06:11:32;;;;;;;8.83;6.93;;;;;;;;;;5045165;28;20544;-55
2023/08/26 06:13:58;;;;;;;8.30;7.50;;;;;;;;;;5033707;28;20448;-56
2023/08/26 06:16:25;;;;;;;10.27;6.20;;;;;;;;;;5034771;28;20453;-55
2023/08/26 06:18:54;;;;;;;9.63;7.93;;;;;;;;;;5036617;28;20901;-55
2023/08/26 06:21:21;;;;;;;8.50;6.67;;;;;;;;;;5033774;28;20458;-56
2023/08/26 06:23:48;;;;;;;9.70;6.33;;;;;;;;;;5034444;28;20470;-56
2023/08/26 06:26:16;;;;;;;8.90;7.37;;;;;;;;;;5029724;28;20437;-56
2023/08/26 06:28:43;;;;;;;8.80;6.60;;;;;;;;;;5028479;28;20474;-55
2023/08/26 06:31:10;;;;;;;7.70;6.90;;;;;;;;;;5033211;28;20482;-55
2023/08/26 06:33:38;;;;;;;7.57;5.87;;;;;;;;;;5030897;28;20521;-54
2023/08/26 06:36:07;;;;;;;7.00;6.30;;;;;;;;;;5040663;28;21062;-56
2023/08/26 06:38:34;;;;;;;8.63;6.07;;;;;;;;;;5040512;28;20481;-55
2023/08/26 06:41:02;;;;;;;11.07;7.53;;;;;;;;;;5041434;28;20519;-56
2023/08/26 06:43:29;;;;;;;9.93;8.50;;;;;;;;;;5041819;28;20760;-55
2023/08/26 06:45:56;;;;;;;8.93;7.57;;;;;;;;;;5036246;28;20470;-56
2023/08/26 06:48:24;;;;;;;9.93;7.70;;;;;;;;;;5036984;28;20528;-55
2023/08/26 06:50:51;;;;;;;7.63;6.60;;;;;;;;;;5031879;28;20474;-57
2023/08/26 06:53:21;;;;;;;10.13;7.30;;;;;;;;;;5027845;28;20434;-58
2023/08/26 06:55:50;;;;;;;9.97;7.30;;;;;;;;;;5026533;28;20513;-57
2023/08/26 06:58:18;;;;;;;9.53;6.83;;;;;;;;;;5027530;28;20442;-58
2023/08/26 07:00:45;;;;;;;7.43;6.50;;;;;;;;;;5024420;28;20492;-58
2023/08/26 07:03:12;;;;;;;8.67;7.77;;;;;;;;;;5031045;28;20927;-57
2023/08/26 07:05:40;;;;;;;8.23;6.90;;;;;;;;;;5030242;28;20512;-57
2023/08/26 07:08:07;;;;;;;8.00;7.20;;;;;;;;;;5030499;28;20466;-57
2023/08/26 07:10:36;;;;;;;7.77;6.97;;;;;;;;;;5030324;28;20521;-57
2023/08/26 07:13:03;;;;;;;8.80;6.80;;;;;;;;;;5029345;28;20497;-57
2023/08/26 07:15:30;;;;;;;9.10;8.20;;;;;;;;;;5027312;28;20464;-57
2023/08/26 07:17:58;;;;;;;9.00;6.50;;;;;;;;;;5034250;28;20442;-57
2023/08/26 07:20:25;;;;;;;7.80;7.00;;;;;;;;;;5050331;28;20920;-57
2023/08/26 07:22:52;;;;;;;7.70;6.90;;;;;;;;;;5049912;28;20508;-57
2023/08/26 07:25:20;;;;;;;9.00;8.10;;;;;;;;;;5041469;28;20546;-58
2023/08/26 07:27:48;;;;;;;8.30;7.50;;;;;;;;;;5034215;28;20525;-58
2023/08/26 07:30:16;;;;;;;9.30;7.40;;;;;;;;;;5021867;28;20582;-58
2023/08/26 07:32:43;;;;;;;7.53;6.83;;;;;;;;;;5029324;28;20545;-56
2023/08/26 07:35:11;;;;;;;8.13;7.33;;;;;;;;;;5025334;28;20483;-58
2023/08/26 07:37:38;;;;;;;7.70;7.00;;;;;;;;;;5007694;28;21033;-57
2023/08/26 07:40:06;;;;;;;8.30;7.20;;;;;;;;;;5007433;28;20526;-56
2023/08/26 07:42:34;;;;;;;7.50;6.80;;;;;;;;;;5006483;28;20498;-58
2023/08/26 07:45:03;;;;;;;10.47;6.70;;;;;;;;;;5006207;28;20533;-57
2023/08/26 07:47:30;;;;;;;7.90;6.80;;;;;;;;;;5005569;28;20938;-57
2023/08/26 07:49:57;;;;;;;7.57;6.67;;;;;;;;;;5023814;28;20518;-58
2023/08/26 07:52:25;;;;;;;7.00;6.30;;;;;;;;;;5029939;28;20540;-58
2023/08/26 07:54:52;;;;;;;7.70;6.33;;;;;;;;;;5031284;28;20442;-56
2023/08/26 07:57:19;;;;;;;8.00;6.87;;;;;;;;;;5031043;28;20461;-57
2023/08/26 07:59:47;;;;;;;7.87;7.07;;;;;;;;;;5033929;28;20438;-59
2023/08/26 08:02:15;;;;;;;8.17;7.37;;;;;;;;;;5034388;28;20496;-58
2023/08/26 08:04:43;;;;;;;9.30;7.93;;;;;;;;;;5036468;28;20466;-57
2023/08/26 08:07:10;;;;;;;9.53;8.33;;;;;;;;;;5035740;28;20469;-58
2023/08/26 08:09:37;;;;;;;9.60;8.70;;;;;;;;;;5040520;28;20577;-58
2023/08/26 08:12:05;;;;;;;10.60;8.97;;;;;;;;;;5031279;28;20901;-57
2023/08/26 08:14:32;;;;;;;9.80;8.80;;;;;;;;;;5030322;28;20537;-57
2023/08/26 08:16:59;;;;;;;10.73;9.40;;;;;;;;;;5030988;28;21039;-57
2023/08/26 08:19:28;;;;;;;8.70;7.70;;;;;;;;;;5030990;28;20443;-57
2023/08/26 08:21:55;;;;;;;8.57;7.37;;;;;;;;;;5030212;28;20466;-57
2023/08/26 08:24:23;;;;;;;11.13;7.80;;;;;;;;;;5030921;28;20536;-58
2023/08/26 08:26:50;;;;;;;8.37;7.60;;;;;;;;;;5041382;28;20469;-58
2023/08/26 08:29:17;;;;;;;8.77;7.87;;;;;;;;;;5039193;28;20481;-57
2023/08/26 08:31:45;;;;;;;8.83;7.63;;;;;;;;;;5038795;28;20852;-58
2023/08/26 08:34:12;;;;;;;8.30;7.50;;;;;;;;;;5041323;28;20461;-57
2023/08/26 08:36:40;;;;;;;7.93;7.13;;;;;;;;;;5040287;28;20446;-57
2023/08/26 08:39:08;;;;;;;8.70;7.80;;;;;;;;;;5038532;28;20503;-57
2023/08/26 08:41:37;;;;;;;8.50;6.90;;;;;;;;;;5061475;22;20906;-83
2023/08/26 08:44:09;;;;;;;10.90;7.90;;;;;;;;;;5030692;28;20518;-84
2023/08/26 08:46:37;;;;;;;8.00;7.13;;;;;;;;;;5029360;28;20454;-84
2023/08/26 08:49:04;;;;;;;8.50;7.60;;;;;;;;;;5042045;28;20446;-85
2023/08/26 08:51:32;;;;;;;8.27;7.47;;;;;;;;;;5037210;28;20524;-84
2023/08/26 08:54:02;;;;;;;8.77;7.57;;;;;;;;;;5031476;28;20462;-84
2023/08/26 08:56:32;;;;;;;9.63;6.83;;;;;;;;;;5031536;28;20446;-84
2023/08/26 08:59:01;;;;;;;8.77;7.37;;;;;;;;;;5029219;28;20438;-84
2023/08/26 09:01:30;;;;;;;8.30;7.47;;;;;;;;;;5030221;28;20529;-85
2023/08/26 09:03:57;;;;;;;7.77;7.00;;;;;;;;;;5030536;28;20461;-87
2023/08/26 09:06:25;;;;;;;9.30;7.43;;;;;;;;;;5030277;28;20478;-85
2023/08/26 09:08:53;;;;;;;7.80;7.10;;;;;;;;;;5031339;28;21002;-85
2023/08/26 09:11:22;;;;;;;8.50;7.03;;;;;;;;;;5030539;28;21002;-84
2023/08/26 09:13:49;;;;;;;7.27;6.53;;;;;;;;;;5029792;28;20573;-85
2023/08/26 09:16:17;;;;;;;9.90;6.93;;;;;;;;;;5027844;28;20445;-85
2023/08/26 09:18:47;;;;;;;7.43;6.73;;;;;;;;;;5024962;28;20515;-84
2023/08/26 09:21:15;;;;;;;7.33;6.43;;;;;;;;;;5028437;28;21021;-85
2023/08/26 09:23:43;;;;;;;8.53;6.57;;;;;;;;;;5030493;28;20549;-85
2023/08/26 09:26:11;;;;;;;7.63;6.63;;;;;;;;;;5031475;28;20435;-85
2023/08/26 09:28:47;;;;;;;8.20;7.40;;;;;;;;;;5030671;28;21194;-85
2023/08/26 09:31:15;;;;;;;7.80;6.37;;;;;;;;;;5028639;28;20544;-85
2023/08/26 09:33:42;;;;;;;7.17;6.37;;;;;;;;;;5031148;28;20466;-85
2023/08/26 09:36:10;;;;;;;7.20;6.50;;;;;;;;;;5031491;28;20537;-85
2023/08/26 09:38:44;;;;;;;7.80;7.00;;;;;;;;;;5030978;28;20472;-85
2023/08/26 09:41:12;;;;;;;7.37;6.60;;;;;;;;;;5030361;28;20445;-85
2023/08/26 09:43:43;;;;;;;7.20;6.50;;;;;;;;;;5030383;28;20986;-84
2023/08/26 09:46:10;;;;;;;8.53;6.73;;;;;;;;;;5027919;28;20430;-85
2023/08/26 09:48:38;;;;;;;8.52;7.00;;;;;;;;;;5023678;28;20453;-84
2023/08/26 09:51:07;;;;;;;8.50;6.80;;;;;;;;;;5028960;28;20239;-85
2023/08/26 09:53:35;;;;;;;6.93;6.23;;;;;;;;;;5027435;28;20459;-84
2023/08/26 09:56:03;;;;;;;6.03;5.43;;;;;;;;;;5029526;28;20485;-85
2023/08/26 09:58:30;;;;;;;8.63;6.73;;;;;;;;;;5029662;28;20569;-84
2023/08/26 10:00:59;;;;;;;7.83;6.83;;;;;;;;;;5029543;28;20473;-85
2023/08/26 10:03:27;;;;;;;8.53;7.70;;;;;;;;;;5030755;28;20466;-85
2023/08/26 10:05:55;;;;;;;7.90;7.20;;;;;;;;;;5030023;28;20806;-84
2023/08/26 10:08:28;;;;;;;7.80;6.80;;;;;;;;;;5027454;28;20442;-84
2023/08/26 10:11:03;;;;;;;7.13;6.43;;;;;;;;;;5029971;28;20474;-84
2023/08/26 10:13:30;;;;;;;7.43;6.67;;;;;;;;;;5027529;28;20453;-85
2023/08/26 10:16:00;;;;;;;7.07;6.23;;;;;;;;;;5033776;28;20504;-84
2023/08/26 10:18:31;;;;;;;6.87;5.83;;;;;;;;;;5025347;28;20450;-85
2023/08/26 10:21:02;;;;;;;5.90;5.23;;;;;;;;;;5040841;28;21006;-86
2023/08/26 10:23:30;;;;;;;6.07;5.47;;;;;;;;;;5037646;28;20987;-84
2023/08/26 10:25:58;;;;;;;6.30;5.70;;;;;;;;;;5031367;28;20434;-85
2023/08/26 10:28:26;;;;;;;6.17;5.57;;;;;;;;;;5030207;28;20500;-85
2023/08/26 10:30:54;;;;;;;5.63;5.03;;;;;;;;;;5028703;28;20498;-84
2023/08/26 10:33:23;;;;;;;6.83;6.20;;;;;;;;;;5029783;28;20445;-85
2023/08/26 10:35:59;;;;;;;6.07;5.47;;;;;;;;;;5031258;28;20445;-85
2023/08/26 10:38:26;;;;;;;5.93;5.33;;;;;;;;;;5027870;28;20446;-85
2023/08/26 10:41:09;;;;;;;6.57;5.93;;;;;;;;;;5026297;28;20477;-85
2023/08/26 10:43:37;;;;;;;6.20;5.60;;;;;;;;;;5020560;28;20550;-85
2023/08/26 10:46:05;;;;;;;5.77;5.23;;;;;;;;;;5012942;28;20518;-85
2023/08/26 10:48:56;;;;;;;6.27;5.67;;;;;;;;;;5009750;28;20470;-85
2023/08/26 10:51:23;;;;;;;5.40;4.87;;;;;;;;;;5010246;28;20485;-85
2023/08/26 10:53:50;;;;;;;6.27;5.67;;;;;;;;;;5010490;28;20466;-85
2023/08/26 10:56:21;;;;;;;6.07;5.50;;;;;;;;;;5011497;28;20889;-85
2023/08/26 10:58:49;;;;;;;6.53;5.80;;;;;;;;;;5011047;28;20451;-85
2023/08/26 11:01:17;;;;;;;6.03;5.43;;;;;;;;;;5010555;28;20478;-85
2023/08/26 11:03:46;;;;;;;6.33;5.73;;;;;;;;;;5010849;28;20475;-85
2023/08/26 11:06:19;;;;;;;6.67;6.07;;;;;;;;;;5010674;28;20505;-85
2023/08/26 11:08:53;;;;;;;6.23;5.70;;;;;;;;;;5014507;28;20889;-85
2023/08/26 11:11:21;;;;;;;5.93;5.43;;;;;;;;;;5010877;28;20507;-85
2023/08/26 11:13:48;;;;;;;6.80;6.20;;;;;;;;;;5009697;28;20947;-85
2023/08/26 11:16:16;;;;;;;6.03;5.37;;;;;;;;;;5011430;28;21016;-85
2023/08/26 11:18:44;;;;;;;6.00;5.50;;;;;;;;;;5010961;28;20886;-85
2023/08/26 11:21:15;;;;;;;7.07;6.03;;;;;;;;;;5010505;28;20490;-85
2023/08/26 11:23:42;;;;;;;5.83;5.37;;;;;;;;;;5010723;28;20550;-85
2023/08/26 11:26:10;;;;;;;7.23;6.63;;;;;;;;;;5019426;28;20438;-85
2023/08/26 11:28:37;;;;;;;6.00;5.40;;;;;;;;;;5030022;28;20536;-85
2023/08/26 11:31:05;;;;;;;7.13;6.43;;;;;;;;;;5030529;28;20613;-85
2023/08/26 11:33:32;;;;;;;7.03;6.33;;;;;;;;;;5030955;28;20798;-85
2023/08/26 11:35:59;;;;;;;6.60;5.90;;;;;;;;;;5031552;28;20478;-86
2023/08/26 11:38:35;;;;;;;7.57;6.77;;;;;;;;;;5030477;28;20449;-84
2023/08/26 11:41:04;;;;;;;5.83;5.23;;;;;;;;;;5029353;28;20783;-85
2023/08/26 11:43:31;;;;;;;7.57;6.40;;;;;;;;;;5029176;28;20642;-85
2023/08/26 11:45:59;;;;;;;6.67;5.50;;;;;;;;;;5025307;28;20542;-85
2023/08/26 11:48:27;;;;;;;6.40;5.33;;;;;;;;;;5011175;28;20451;-85
2023/08/26 11:51:00;;;;;;;6.83;6.13;;;;;;;;;;5010506;28;20950;-84
2023/08/26 11:53:28;;;;;;;6.90;6.20;;;;;;;;;;5017607;28;20506;-84
2023/08/26 11:56:00;;;;;;;6.73;5.17;;;;;;;;;;5025692;28;20450;-84
2023/08/26 11:58:27;;;;;;;6.37;5.77;;;;;;;;;;5013709;28;20458;-84
2023/08/26 12:00:55;;;;;;;20.30;7.73;;;;;;;;;;5025207;28;20595;-85
2023/08/26 12:03:23;;;;;;;6.07;5.57;;;;;;;;;;5013104;28;20457;-85
2023/08/26 12:05:52;;;;;;;6.00;5.40;;;;;;;;;;5013997;28;20545;-85
2023/08/26 12:08:21;;;;;;;6.30;5.70;;;;;;;;;;5025006;28;20482;-85
2023/08/26 12:10:49;;;;;;;8.17;5.70;;;;;;;;;;5019296;28;20458;-84
2023/08/26 12:13:18;;;;;;;6.67;6.07;;;;;;;;;;5027014;28;20446;-85
2023/08/26 12:15:47;;;;;;;6.07;5.57;;;;;;;;;;5024802;28;20873;-85
2023/08/26 12:18:14;;;;;;;7.07;5.50;;;;;;;;;;5030716;28;20949;-85
2023/08/26 12:20:44;;;;;;;5.83;5.30;;;;;;;;;;5012801;28;20893;-85
2023/08/26 12:23:11;;;;;;;7.30;5.33;;;;;;;;;;5021427;28;20446;-85
2023/08/26 12:25:41;;;;;;;6.30;5.70;;;;;;;;;;5025731;28;20496;-85
2023/08/26 12:28:12;;;;;;;5.93;5.43;;;;;;;;;;5021861;28;20446;-84
2023/08/26 12:30:41;;;;;;;6.50;5.90;;;;;;;;;;5012602;28;20857;-85
2023/08/26 12:33:09;;;;;;;6.37;5.77;;;;;;;;;;5023768;28;20462;-84
2023/08/26 12:35:37;;;;;;;6.30;5.70;;;;;;;;;;5023581;28;20881;-84
2023/08/26 12:38:04;;;;;;;5.00;4.50;;;;;;;;;;5027718;28;20863;-85
2023/08/26 12:40:32;;;;;;;5.20;4.70;;;;;;;;;;5027111;28;20458;-84
2023/08/26 12:42:59;;;;;;;5.90;5.40;;;;;;;;;;5030632;28;20762;-85
2023/08/26 12:45:26;;;;;;;5.67;5.10;;;;;;;;;;5031490;28;20462;-85
2023/08/26 12:47:55;;;;;;;6.33;5.70;;;;;;;;;;5019150;28;20474;-84
2023/08/26 12:50:22;;;;;;;6.70;6.10;;;;;;;;;;5011266;28;20811;-84
2023/08/26 12:52:50;;;;;;;5.57;5.00;;;;;;;;;;5021338;28;20955;-84
2023/08/26 12:55:17;;;;;;;6.40;5.20;;;;;;;;;;5024730;28;20497;-85
2023/08/26 12:57:44;;;;;;;5.83;5.10;;;;;;;;;;5026472;28;20442;-84
2023/08/26 13:00:12;;;;;;;5.63;5.03;;;;;;;;;;5034134;28;20446;-84
2023/08/26 13:02:40;;;;;;;5.60;5.10;;;;;;;;;;5033666;28;20473;-84
2023/08/26 13:05:10;;;;;;;5.83;5.13;;;;;;;;;;5027905;28;21017;-84
2023/08/26 13:07:37;;;;;;;5.47;4.97;;;;;;;;;;5033201;28;20438;-85
2023/08/26 13:10:05;;;;;;;6.27;5.67;;;;;;;;;;5033087;28;20442;-84
2023/08/26 13:12:32;;;;;;;6.30;5.70;;;;;;;;;;5027030;28;20478;-84
2023/08/26 13:15:00;;;;;;;5.93;5.33;;;;;;;;;;5027117;28;20462;-85
2023/08/26 13:17:27;;;;;;;7.67;5.80;;;;;;;;;;5033554;28;20512;-83
2023/08/26 13:19:58;;;;;;;5.07;4.57;;;;;;;;;;5033992;28;20446;-84
2023/08/26 13:22:27;;;;;;;5.60;4.90;;;;;;;;;;5034267;28;20442;-85
2023/08/26 13:24:57;;;;;;;5.80;5.30;;;;;;;;;;5026515;28;20481;-84
2023/08/26 13:27:24;;;;;;;5.83;5.23;;;;;;;;;;5042796;28;20446;-83
2023/08/26 13:29:51;;;;;;;5.67;5.00;;;;;;;;;;5023985;28;20966;-84
2023/08/26 13:32:19;;;;;;;5.60;5.10;;;;;;;;;;5025794;28;20510;-84
2023/08/26 13:34:46;;;;;;;6.30;5.07;;;;;;;;;;5030193;28;20508;-84
2023/08/26 13:37:13;;;;;;;5.77;4.60;;;;;;;;;;5032908;28;20438;-85
2023/08/26 13:39:42;;;;;;;5.33;4.83;;;;;;;;;;5032569;28;20718;-85
2023/08/26 13:42:09;;;;;;;5.83;5.23;;;;;;;;;;5029892;28;20450;-84
2023/08/26 13:44:37;;;;;;;5.33;4.83;;;;;;;;;;5031740;28;20528;-84
2023/08/26 13:47:04;;;;;;;5.90;5.30;;;;;;;;;;5031137;28;20446;-84
2023/08/26 13:49:31;;;;;;;6.60;5.90;;;;;;;;;;5033074;28;21028;-85
2023/08/26 13:51:58;;;;;;;6.07;5.47;;;;;;;;;;5029788;28;20612;-84
2023/08/26 13:54:26;;;;;;;6.03;5.30;;;;;;;;;;5028100;28;20536;-84
2023/08/26 13:56:54;;;;;;;5.40;4.90;;;;;;;;;;5031851;28;20493;-85
2023/08/26 13:59:23;;;;;;;6.73;6.03;;;;;;;;;;5033144;28;20454;-84
2023/08/26 14:01:51;;;;;;;7.40;5.20;;;;;;;;;;5032457;28;20447;-85
2023/08/26 14:04:18;;;;;;;5.70;5.20;;;;;;;;;;5032689;28;20498;-84
2023/08/26 14:06:45;;;;;;;6.10;5.50;;;;;;;;;;5030758;28;20458;-84
2023/08/26 14:09:12;;;;;;;6.33;5.73;;;;;;;;;;5028345;28;20507;-84
2023/08/26 14:11:40;;;;;;;7.17;6.20;;;;;;;;;;5030857;28;20521;-84
2023/08/26 14:14:08;;;;;;;16.03;7.90;;;;;;;;;;5024657;28;20522;-85
2023/08/26 14:16:36;;;;;;;12.53;6.50;;;;;;;;;;5026590;28;20474;-85
2023/08/26 14:19:03;;;;;;;8.23;6.07;;;;;;;;;;5026656;28;20499;-85
2023/08/26 14:21:31;;;;;;;6.10;4.90;;;;;;;;;;5012733;28;20465;-84
2023/08/26 14:23:58;;;;;;;5.80;5.20;;;;;;;;;;5029822;28;20485;-84
2023/08/26 14:26:26;;;;;;;6.47;5.77;;;;;;;;;;5032633;28;20500;-84
2023/08/26 14:28:53;;;;;;;7.10;5.60;;;;;;;;;;5030513;28;20975;-84
2023/08/26 14:31:22;;;;;;;6.47;5.83;;;;;;;;;;5032542;28;21010;-85
2023/08/26 14:33:49;;;;;;;8.83;5.93;;;;;;;;;;5025459;28;20490;-84
2023/08/26 14:36:16;;;;;;;6.47;5.87;;;;;;;;;;5027048;28;20475;-84
2023/08/26 14:38:44;;;;;;;7.13;5.97;;;;;;;;;;5033016;28;20426;-84
2023/08/26 14:41:11;;;;;;;6.20;5.50;;;;;;;;;;5032009;28;20448;-85
2023/08/26 14:43:39;;;;;;;6.80;6.13;;;;;;;;;;5030208;28;20485;-84
2023/08/26 14:46:06;;;;;;;7.93;6.93;;;;;;;;;;5032056;28;20446;-84
2023/08/26 14:48:35;;;;;;;6.90;6.20;;;;;;;;;;5029414;28;20454;-84
2023/08/26 14:51:05;;;;;;;7.47;6.17;;;;;;;;;;5032298;28;20544;-84